sensor_id;sensor_type;location;lat;lon;timestamp;P1;durP1;ratioP1;P2;durP2;ratioP2
76593;SDS011;65482;50.240;14.302;2023-04-06T00:01:53;45.55;;;20.75;;
76593;SDS011;65482;50.240;14.302;2023-04-06T00:04:19;42.70;;;20.52;;
76593;SDS011;65482;50.240;14.302;2023-04-06T00:06:45;42.60;;;20.77;;
76593;SDS011;65482;50.240;14.302;2023-04-06T00:09:11;42.05;;;21.50;;
76593;SDS011;65482;50.240;14.302;2023-04-06T00:11:36;44.67;;;19.83;;
76593;SDS011;65482;50.240;14.302;2023-04-06T00:14:02;46.35;;;21.05;;
76593;SDS011;65482;50.240;14.302;2023-04-06T00:16:27;47.83;;;21.30;;
76593;SDS011;65482;50.240;14.302;2023-04-06T00:18:54;40.78;;;20.35;;
76593;SDS011;65482;50.240;14.302;2023-04-06T00:21:19;41.55;;;20.02;;
76593;SDS011;65482;50.240;14.302;2023-04-06T00:23:45;39.92;;;19.20;;
76593;SDS011;65482;50.240;14.302;2023-04-06T00:26:11;38.10;;;18.58;;
76593;SDS011;65482;50.240;14.302;2023-04-06T00:28:37;38.97;;;19.35;;
76593;SDS011;65482;50.240;14.302;2023-04-06T00:31:03;35.35;;;18.02;;
76593;SDS011;65482;50.240;14.302;2023-04-06T00:33:29;34.28;;;17.63;;
76593;SDS011;65482;50.240;14.302;2023-04-06T00:35:54;35.70;;;18.65;;
76593;SDS011;65482;50.240;14.302;2023-04-06T00:38:21;36.95;;;18.35;;
76593;SDS011;65482;50.240;14.302;2023-04-06T00:40:46;38.55;;;18.48;;
76593;SDS011;65482;50.240;14.302;2023-04-06T00:43:12;35.70;;;18.35;;
76593;SDS011;65482;50.240;14.302;2023-04-06T00:45:39;37.33;;;17.90;;
76593;SDS011;65482;50.240;14.302;2023-04-06T00:48:05;33.60;;;18.35;;
76593;SDS011;65482;50.240;14.302;2023-04-06T00:50:32;34.70;;;18.90;;
76593;SDS011;65482;50.240;14.302;2023-04-06T00:52:58;37.40;;;19.27;;
76593;SDS011;65482;50.240;14.302;2023-04-06T00:55:25;35.63;;;18.90;;
76593;SDS011;65482;50.240;14.302;2023-04-06T00:57:52;35.65;;;18.55;;
76593;SDS011;65482;50.240;14.302;2023-04-06T01:00:19;38.15;;;18.85;;
76593;SDS011;65482;50.240;14.302;2023-04-06T01:02:45;37.38;;;19.40;;
76593;SDS011;65482;50.240;14.302;2023-04-06T01:05:11;33.83;;;18.85;;
76593;SDS011;65482;50.240;14.302;2023-04-06T01:07:37;38.03;;;19.63;;
76593;SDS011;65482;50.240;14.302;2023-04-06T01:10:03;35.55;;;18.48;;
76593;SDS011;65482;50.240;14.302;2023-04-06T01:12:33;35.65;;;17.83;;
76593;SDS011;65482;50.240;14.302;2023-04-06T01:14:59;42.08;;;18.60;;
76593;SDS011;65482;50.240;14.302;2023-04-06T01:17:40;36.75;;;17.92;;
76593;SDS011;65482;50.240;14.302;2023-04-06T01:20:15;32.70;;;18.20;;
76593;SDS011;65482;50.240;14.302;2023-04-06T01:22:41;40.63;;;17.77;;
76593;SDS011;65482;50.240;14.302;2023-04-06T01:25:07;37.65;;;18.60;;
76593;SDS011;65482;50.240;14.302;2023-04-06T01:27:35;35.72;;;18.42;;
76593;SDS011;65482;50.240;14.302;2023-04-06T01:30:01;36.75;;;17.02;;
76593;SDS011;65482;50.240;14.302;2023-04-06T01:32:27;35.08;;;17.67;;
76593;SDS011;65482;50.240;14.302;2023-04-06T01:34:53;37.70;;;17.83;;
76593;SDS011;65482;50.240;14.302;2023-04-06T01:37:20;33.85;;;17.27;;
76593;SDS011;65482;50.240;14.302;2023-04-06T01:39:45;36.28;;;17.85;;
76593;SDS011;65482;50.240;14.302;2023-04-06T01:42:11;34.78;;;17.10;;
76593;SDS011;65482;50.240;14.302;2023-04-06T01:44:37;32.42;;;17.73;;
76593;SDS011;65482;50.240;14.302;2023-04-06T01:47:03;36.53;;;18.02;;
76593;SDS011;65482;50.240;14.302;2023-04-06T01:49:28;34.20;;;16.75;;
76593;SDS011;65482;50.240;14.302;2023-04-06T01:51:55;33.70;;;16.90;;
76593;SDS011;65482;50.240;14.302;2023-04-06T01:54:20;30.33;;;16.98;;
76593;SDS011;65482;50.240;14.302;2023-04-06T01:56:46;34.65;;;17.50;;
76593;SDS011;65482;50.240;14.302;2023-04-06T01:59:12;32.55;;;16.40;;
76593;SDS011;65482;50.240;14.302;2023-04-06T02:01:38;37.20;;;16.15;;
76593;SDS011;65482;50.240;14.302;2023-04-06T02:04:04;33.92;;;16.77;;
76593;SDS011;65482;50.240;14.302;2023-04-06T02:06:29;30.95;;;16.35;;
76593;SDS011;65482;50.240;14.302;2023-04-06T02:08:56;33.10;;;16.40;;
76593;SDS011;65482;50.240;14.302;2023-04-06T02:11:22;31.48;;;17.67;;
76593;SDS011;65482;50.240;14.302;2023-04-06T02:13:47;33.28;;;17.80;;
76593;SDS011;65482;50.240;14.302;2023-04-06T02:16:13;34.35;;;17.17;;
76593;SDS011;65482;50.240;14.302;2023-04-06T02:18:39;30.67;;;16.35;;
76593;SDS011;65482;50.240;14.302;2023-04-06T02:21:05;32.42;;;16.13;;
76593;SDS011;65482;50.240;14.302;2023-04-06T02:23:31;31.92;;;16.45;;
76593;SDS011;65482;50.240;14.302;2023-04-06T02:25:57;34.85;;;16.00;;
76593;SDS011;65482;50.240;14.302;2023-04-06T02:28:22;31.88;;;16.85;;
76593;SDS011;65482;50.240;14.302;2023-04-06T02:30:48;35.00;;;16.85;;
76593;SDS011;65482;50.240;14.302;2023-04-06T02:33:14;33.78;;;17.35;;
76593;SDS011;65482;50.240;14.302;2023-04-06T02:35:40;34.65;;;16.85;;
76593;SDS011;65482;50.240;14.302;2023-04-06T02:38:05;38.92;;;18.60;;
76593;SDS011;65482;50.240;14.302;2023-04-06T02:40:31;40.83;;;18.27;;
76593;SDS011;65482;50.240;14.302;2023-04-06T02:42:56;39.05;;;18.33;;
76593;SDS011;65482;50.240;14.302;2023-04-06T02:45:22;36.92;;;17.48;;
76593;SDS011;65482;50.240;14.302;2023-04-06T02:47:48;39.22;;;18.55;;
76593;SDS011;65482;50.240;14.302;2023-04-06T02:50:14;36.38;;;17.58;;
76593;SDS011;65482;50.240;14.302;2023-04-06T02:52:39;32.20;;;17.27;;
76593;SDS011;65482;50.240;14.302;2023-04-06T02:55:06;36.00;;;18.10;;
76593;SDS011;65482;50.240;14.302;2023-04-06T02:57:32;34.20;;;17.85;;
76593;SDS011;65482;50.240;14.302;2023-04-06T02:59:58;36.00;;;17.90;;
76593;SDS011;65482;50.240;14.302;2023-04-06T03:02:24;36.78;;;17.63;;
76593;SDS011;65482;50.240;14.302;2023-04-06T03:04:50;35.38;;;18.17;;
76593;SDS011;65482;50.240;14.302;2023-04-06T03:07:15;33.80;;;17.70;;
76593;SDS011;65482;50.240;14.302;2023-04-06T03:09:41;33.13;;;17.05;;
76593;SDS011;65482;50.240;14.302;2023-04-06T03:12:07;33.47;;;16.88;;
76593;SDS011;65482;50.240;14.302;2023-04-06T03:14:32;32.85;;;15.95;;
76593;SDS011;65482;50.240;14.302;2023-04-06T03:16:58;30.80;;;15.50;;
76593;SDS011;65482;50.240;14.302;2023-04-06T03:19:24;33.97;;;15.48;;
76593;SDS011;65482;50.240;14.302;2023-04-06T03:21:50;37.35;;;16.27;;
76593;SDS011;65482;50.240;14.302;2023-04-06T03:24:15;31.48;;;15.93;;
76593;SDS011;65482;50.240;14.302;2023-04-06T03:26:41;34.50;;;16.48;;
76593;SDS011;65482;50.240;14.302;2023-04-06T03:29:07;39.08;;;17.40;;
76593;SDS011;65482;50.240;14.302;2023-04-06T03:31:32;32.75;;;16.30;;
76593;SDS011;65482;50.240;14.302;2023-04-06T03:33:58;34.22;;;17.48;;
76593;SDS011;65482;50.240;14.302;2023-04-06T03:36:24;33.30;;;16.38;;
76593;SDS011;65482;50.240;14.302;2023-04-06T03:38:51;30.70;;;15.77;;
76593;SDS011;65482;50.240;14.302;2023-04-06T03:41:18;34.38;;;17.63;;
76593;SDS011;65482;50.240;14.302;2023-04-06T03:43:45;34.63;;;17.27;;
76593;SDS011;65482;50.240;14.302;2023-04-06T03:46:10;32.17;;;16.73;;
76593;SDS011;65482;50.240;14.302;2023-04-06T03:48:36;32.97;;;16.65;;
76593;SDS011;65482;50.240;14.302;2023-04-06T03:51:02;27.90;;;16.48;;
76593;SDS011;65482;50.240;14.302;2023-04-06T03:53:28;29.95;;;16.70;;
76593;SDS011;65482;50.240;14.302;2023-04-06T03:55:53;33.42;;;16.00;;
76593;SDS011;65482;50.240;14.302;2023-04-06T03:58:19;29.17;;;15.40;;
76593;SDS011;65482;50.240;14.302;2023-04-06T04:00:45;36.05;;;16.23;;
76593;SDS011;65482;50.240;14.302;2023-04-06T04:03:10;31.98;;;16.70;;
76593;SDS011;65482;50.240;14.302;2023-04-06T04:05:36;35.92;;;17.40;;
76593;SDS011;65482;50.240;14.302;2023-04-06T04:08:02;34.22;;;16.00;;
76593;SDS011;65482;50.240;14.302;2023-04-06T04:10:27;30.60;;;16.45;;
76593;SDS011;65482;50.240;14.302;2023-04-06T04:12:53;30.67;;;16.50;;
76593;SDS011;65482;50.240;14.302;2023-04-06T04:15:19;33.20;;;17.08;;
76593;SDS011;65482;50.240;14.302;2023-04-06T04:17:45;32.75;;;16.02;;
76593;SDS011;65482;50.240;14.302;2023-04-06T04:20:12;36.85;;;17.02;;
76593;SDS011;65482;50.240;14.302;2023-04-06T04:22:38;36.03;;;17.10;;
76593;SDS011;65482;50.240;14.302;2023-04-06T04:25:04;41.53;;;18.40;;
76593;SDS011;65482;50.240;14.302;2023-04-06T04:27:30;44.40;;;19.05;;
76593;SDS011;65482;50.240;14.302;2023-04-06T04:29:56;47.28;;;19.25;;
76593;SDS011;65482;50.240;14.302;2023-04-06T04:32:22;42.17;;;17.63;;
76593;SDS011;65482;50.240;14.302;2023-04-06T04:34:47;40.80;;;18.98;;
76593;SDS011;65482;50.240;14.302;2023-04-06T04:37:13;38.75;;;19.00;;
76593;SDS011;65482;50.240;14.302;2023-04-06T04:39:41;34.92;;;18.52;;
76593;SDS011;65482;50.240;14.302;2023-04-06T04:42:07;40.97;;;18.63;;
76593;SDS011;65482;50.240;14.302;2023-04-06T04:44:33;33.90;;;18.10;;
76593;SDS011;65482;50.240;14.302;2023-04-06T04:46:58;31.10;;;16.40;;
76593;SDS011;65482;50.240;14.302;2023-04-06T04:49:24;32.35;;;16.70;;
76593;SDS011;65482;50.240;14.302;2023-04-06T04:51:50;33.20;;;16.13;;
76593;SDS011;65482;50.240;14.302;2023-04-06T04:54:17;31.75;;;16.58;;
76593;SDS011;65482;50.240;14.302;2023-04-06T04:56:44;37.70;;;18.00;;
76593;SDS011;65482;50.240;14.302;2023-04-06T04:59:10;28.05;;;16.40;;
76593;SDS011;65482;50.240;14.302;2023-04-06T05:01:36;34.72;;;17.33;;
76593;SDS011;65482;50.240;14.302;2023-04-06T05:04:02;34.38;;;17.20;;
76593;SDS011;65482;50.240;14.302;2023-04-06T05:06:28;32.10;;;15.80;;
76593;SDS011;65482;50.240;14.302;2023-04-06T05:08:53;30.95;;;15.98;;
76593;SDS011;65482;50.240;14.302;2023-04-06T05:11:19;34.15;;;16.48;;
76593;SDS011;65482;50.240;14.302;2023-04-06T05:13:45;30.20;;;16.20;;
76593;SDS011;65482;50.240;14.302;2023-04-06T05:16:10;31.48;;;16.33;;
76593;SDS011;65482;50.240;14.302;2023-04-06T05:18:36;34.88;;;16.67;;
76593;SDS011;65482;50.240;14.302;2023-04-06T05:21:02;33.20;;;16.27;;
76593;SDS011;65482;50.240;14.302;2023-04-06T05:23:27;33.60;;;16.13;;
76593;SDS011;65482;50.240;14.302;2023-04-06T05:25:53;34.65;;;16.92;;
76593;SDS011;65482;50.240;14.302;2023-04-06T05:28:19;32.78;;;17.25;;
76593;SDS011;65482;50.240;14.302;2023-04-06T05:30:45;33.42;;;17.02;;
76593;SDS011;65482;50.240;14.302;2023-04-06T05:33:13;32.65;;;16.95;;
76593;SDS011;65482;50.240;14.302;2023-04-06T05:35:39;31.13;;;16.67;;
76593;SDS011;65482;50.240;14.302;2023-04-06T05:38:07;31.95;;;15.90;;
76593;SDS011;65482;50.240;14.302;2023-04-06T05:40:34;29.48;;;16.42;;
76593;SDS011;65482;50.240;14.302;2023-04-06T05:43:00;33.95;;;15.88;;
76593;SDS011;65482;50.240;14.302;2023-04-06T05:45:26;32.72;;;16.70;;
76593;SDS011;65482;50.240;14.302;2023-04-06T05:47:51;31.75;;;16.85;;
76593;SDS011;65482;50.240;14.302;2023-04-06T05:50:17;28.83;;;16.92;;
76593;SDS011;65482;50.240;14.302;2023-04-06T05:52:43;29.65;;;16.90;;
76593;SDS011;65482;50.240;14.302;2023-04-06T05:55:11;26.88;;;15.95;;
76593;SDS011;65482;50.240;14.302;2023-04-06T05:57:40;29.30;;;16.45;;
76593;SDS011;65482;50.240;14.302;2023-04-06T06:00:14;30.95;;;16.48;;
76593;SDS011;65482;50.240;14.302;2023-04-06T06:02:39;59.50;;;17.48;;
76593;SDS011;65482;50.240;14.302;2023-04-06T06:05:08;25.80;;;15.52;;
76593;SDS011;65482;50.240;14.302;2023-04-06T06:07:33;28.05;;;15.23;;
76593;SDS011;65482;50.240;14.302;2023-04-06T06:09:59;29.15;;;15.80;;
76593;SDS011;65482;50.240;14.302;2023-04-06T06:12:25;26.67;;;15.88;;
76593;SDS011;65482;50.240;14.302;2023-04-06T06:14:51;27.27;;;15.07;;
76593;SDS011;65482;50.240;14.302;2023-04-06T06:17:16;26.73;;;15.13;;
76593;SDS011;65482;50.240;14.302;2023-04-06T06:19:42;25.42;;;16.05;;
76593;SDS011;65482;50.240;14.302;2023-04-06T06:22:08;26.45;;;15.23;;
76593;SDS011;65482;50.240;14.302;2023-04-06T06:24:33;23.30;;;14.30;;
76593;SDS011;65482;50.240;14.302;2023-04-06T06:26:59;24.30;;;14.55;;
76593;SDS011;65482;50.240;14.302;2023-04-06T06:29:25;22.45;;;16.00;;
76593;SDS011;65482;50.240;14.302;2023-04-06T06:31:50;26.42;;;14.93;;
76593;SDS011;65482;50.240;14.302;2023-04-06T06:34:16;29.88;;;16.23;;
76593;SDS011;65482;50.240;14.302;2023-04-06T06:36:41;23.73;;;15.40;;
76593;SDS011;65482;50.240;14.302;2023-04-06T06:39:07;22.67;;;14.50;;
76593;SDS011;65482;50.240;14.302;2023-04-06T06:41:33;32.20;;;16.65;;
76593;SDS011;65482;50.240;14.302;2023-04-06T06:43:59;23.90;;;15.57;;
76593;SDS011;65482;50.240;14.302;2023-04-06T06:46:25;27.48;;;17.15;;
76593;SDS011;65482;50.240;14.302;2023-04-06T06:48:50;47.65;;;17.10;;
76593;SDS011;65482;50.240;14.302;2023-04-06T06:51:16;30.65;;;16.48;;
76593;SDS011;65482;50.240;14.302;2023-04-06T06:53:42;25.73;;;15.95;;
76593;SDS011;65482;50.240;14.302;2023-04-06T06:56:07;27.70;;;16.15;;
76593;SDS011;65482;50.240;14.302;2023-04-06T06:58:33;31.58;;;16.60;;
76593;SDS011;65482;50.240;14.302;2023-04-06T07:00:59;25.33;;;15.48;;
76593;SDS011;65482;50.240;14.302;2023-04-06T07:03:25;19.35;;;13.73;;
76593;SDS011;65482;50.240;14.302;2023-04-06T07:05:51;23.77;;;14.88;;
76593;SDS011;65482;50.240;14.302;2023-04-06T07:08:20;25.52;;;14.90;;
76593;SDS011;65482;50.240;14.302;2023-04-06T07:10:46;22.67;;;14.55;;
76593;SDS011;65482;50.240;14.302;2023-04-06T07:13:13;23.48;;;14.02;;
76593;SDS011;65482;50.240;14.302;2023-04-06T07:15:43;24.02;;;14.80;;
76593;SDS011;65482;50.240;14.302;2023-04-06T07:18:09;20.42;;;14.20;;
76593;SDS011;65482;50.240;14.302;2023-04-06T07:20:34;21.45;;;14.18;;
76593;SDS011;65482;50.240;14.302;2023-04-06T07:23:00;19.58;;;13.88;;
76593;SDS011;65482;50.240;14.302;2023-04-06T07:25:26;20.15;;;13.10;;
76593;SDS011;65482;50.240;14.302;2023-04-06T07:27:52;19.15;;;12.80;;
76593;SDS011;65482;50.240;14.302;2023-04-06T07:30:17;20.70;;;13.18;;
76593;SDS011;65482;50.240;14.302;2023-04-06T07:32:44;19.80;;;12.30;;
76593;SDS011;65482;50.240;14.302;2023-04-06T07:35:11;17.35;;;12.23;;
76593;SDS011;65482;50.240;14.302;2023-04-06T07:37:45;15.00;;;11.05;;
76593;SDS011;65482;50.240;14.302;2023-04-06T07:40:10;18.77;;;12.20;;
76593;SDS011;65482;50.240;14.302;2023-04-06T07:42:36;18.05;;;12.27;;
76593;SDS011;65482;50.240;14.302;2023-04-06T07:45:02;17.85;;;11.38;;
76593;SDS011;65482;50.240;14.302;2023-04-06T07:47:29;16.13;;;12.07;;
76593;SDS011;65482;50.240;14.302;2023-04-06T07:49:54;14.30;;;11.10;;
76593;SDS011;65482;50.240;14.302;2023-04-06T07:52:21;13.50;;;10.38;;
76593;SDS011;65482;50.240;14.302;2023-04-06T07:54:47;12.85;;;9.50;;
76593;SDS011;65482;50.240;14.302;2023-04-06T07:57:16;12.93;;;9.23;;
76593;SDS011;65482;50.240;14.302;2023-04-06T07:59:45;12.80;;;8.60;;
76593;SDS011;65482;50.240;14.302;2023-04-06T08:02:11;11.48;;;8.52;;
76593;SDS011;65482;50.240;14.302;2023-04-06T08:04:36;10.60;;;8.90;;
76593;SDS011;65482;50.240;14.302;2023-04-06T08:07:02;12.48;;;8.98;;
76593;SDS011;65482;50.240;14.302;2023-04-06T08:09:28;14.57;;;9.63;;
76593;SDS011;65482;50.240;14.302;2023-04-06T08:11:53;15.13;;;10.73;;
76593;SDS011;65482;50.240;14.302;2023-04-06T08:14:19;10.85;;;8.20;;
76593;SDS011;65482;50.240;14.302;2023-04-06T08:16:45;10.07;;;7.38;;
76593;SDS011;65482;50.240;14.302;2023-04-06T08:19:11;11.50;;;7.50;;
76593;SDS011;65482;50.240;14.302;2023-04-06T08:21:36;11.50;;;7.22;;
76593;SDS011;65482;50.240;14.302;2023-04-06T08:24:02;11.45;;;7.60;;
76593;SDS011;65482;50.240;14.302;2023-04-06T08:26:28;10.93;;;7.32;;
76593;SDS011;65482;50.240;14.302;2023-04-06T08:28:54;10.90;;;7.60;;
76593;SDS011;65482;50.240;14.302;2023-04-06T08:31:19;12.77;;;7.97;;
76593;SDS011;65482;50.240;14.302;2023-04-06T08:33:45;9.00;;;7.25;;
76593;SDS011;65482;50.240;14.302;2023-04-06T08:36:12;9.73;;;8.13;;
76593;SDS011;65482;50.240;14.302;2023-04-06T08:38:39;9.85;;;7.70;;
76593;SDS011;65482;50.240;14.302;2023-04-06T08:41:09;12.55;;;7.47;;
76593;SDS011;65482;50.240;14.302;2023-04-06T08:43:43;10.15;;;8.02;;
76593;SDS011;65482;50.240;14.302;2023-04-06T08:46:12;9.98;;;7.68;;
76593;SDS011;65482;50.240;14.302;2023-04-06T08:48:41;12.20;;;7.78;;
76593;SDS011;65482;50.240;14.302;2023-04-06T08:51:08;12.27;;;9.23;;
76593;SDS011;65482;50.240;14.302;2023-04-06T08:53:35;11.52;;;7.70;;
76593;SDS011;65482;50.240;14.302;2023-04-06T08:56:02;14.35;;;8.57;;
76593;SDS011;65482;50.240;14.302;2023-04-06T08:58:31;12.98;;;8.20;;
76593;SDS011;65482;50.240;14.302;2023-04-06T09:00:59;13.50;;;10.18;;
76593;SDS011;65482;50.240;14.302;2023-04-06T09:03:26;11.63;;;8.05;;
76593;SDS011;65482;50.240;14.302;2023-04-06T09:05:54;13.63;;;8.00;;
76593;SDS011;65482;50.240;14.302;2023-04-06T09:08:20;13.07;;;7.32;;
76593;SDS011;65482;50.240;14.302;2023-04-06T09:10:45;11.02;;;7.47;;
76593;SDS011;65482;50.240;14.302;2023-04-06T09:13:11;12.18;;;7.80;;
76593;SDS011;65482;50.240;14.302;2023-04-06T09:15:37;11.88;;;7.78;;
76593;SDS011;65482;50.240;14.302;2023-04-06T09:18:03;17.48;;;8.30;;
76593;SDS011;65482;50.240;14.302;2023-04-06T09:20:28;15.85;;;8.10;;
76593;SDS011;65482;50.240;14.302;2023-04-06T09:22:54;11.00;;;7.75;;
76593;SDS011;65482;50.240;14.302;2023-04-06T09:25:21;11.90;;;7.10;;
76593;SDS011;65482;50.240;14.302;2023-04-06T09:27:48;8.88;;;6.60;;
76593;SDS011;65482;50.240;14.302;2023-04-06T09:30:24;8.32;;;6.10;;
76593;SDS011;65482;50.240;14.302;2023-04-06T09:32:51;8.50;;;5.93;;
76593;SDS011;65482;50.240;14.302;2023-04-06T09:35:18;13.88;;;5.57;;
76593;SDS011;65482;50.240;14.302;2023-04-06T09:37:48;9.35;;;6.03;;
76593;SDS011;65482;50.240;14.302;2023-04-06T09:40:15;10.77;;;6.63;;
76593;SDS011;65482;50.240;14.302;2023-04-06T09:42:47;9.23;;;6.18;;
76593;SDS011;65482;50.240;14.302;2023-04-06T09:45:17;7.75;;;5.32;;
76593;SDS011;65482;50.240;14.302;2023-04-06T09:47:43;9.35;;;6.32;;
76593;SDS011;65482;50.240;14.302;2023-04-06T09:50:11;9.82;;;6.00;;
76593;SDS011;65482;50.240;14.302;2023-04-06T09:55:07;9.05;;;6.32;;
76593;SDS011;65482;50.240;14.302;2023-04-06T09:58:16;8.00;;;5.78;;
76593;SDS011;65482;50.240;14.302;2023-04-06T10:00:30;10.63;;;6.18;;
76593;SDS011;65482;50.240;14.302;2023-04-06T10:02:59;9.82;;;6.55;;
76593;SDS011;65482;50.240;14.302;2023-04-06T10:05:37;8.05;;;5.78;;
76593;SDS011;65482;50.240;14.302;2023-04-06T10:08:17;8.40;;;4.60;;
76593;SDS011;65482;50.240;14.302;2023-04-06T10:10:44;6.88;;;4.40;;
76593;SDS011;65482;50.240;14.302;2023-04-06T10:13:11;5.60;;;4.30;;
76593;SDS011;65482;50.240;14.302;2023-04-06T10:15:40;7.13;;;4.60;;
76593;SDS011;65482;50.240;14.302;2023-04-06T10:18:07;7.30;;;5.10;;
76593;SDS011;65482;50.240;14.302;2023-04-06T10:23:24;11.57;;;6.35;;
76593;SDS011;65482;50.240;14.302;2023-04-06T10:25:57;9.35;;;6.57;;
76593;SDS011;65482;50.240;14.302;2023-04-06T10:28:30;12.90;;;6.20;;
76593;SDS011;65482;50.240;14.302;2023-04-06T10:30:59;8.18;;;5.78;;
76593;SDS011;65482;50.240;14.302;2023-04-06T10:33:25;7.28;;;5.60;;
76593;SDS011;65482;50.240;14.302;2023-04-06T10:35:52;8.23;;;5.88;;
76593;SDS011;65482;50.240;14.302;2023-04-06T10:38:18;6.95;;;4.97;;
76593;SDS011;65482;50.240;14.302;2023-04-06T10:40:47;10.65;;;5.72;;
76593;SDS011;65482;50.240;14.302;2023-04-06T10:43:17;6.78;;;5.55;;
76593;SDS011;65482;50.240;14.302;2023-04-06T10:45:54;7.97;;;4.90;;
76593;SDS011;65482;50.240;14.302;2023-04-06T10:48:21;8.73;;;4.95;;
76593;SDS011;65482;50.240;14.302;2023-04-06T10:50:51;8.82;;;5.15;;
76593;SDS011;65482;50.240;14.302;2023-04-06T10:53:23;10.90;;;5.43;;
76593;SDS011;65482;50.240;14.302;2023-04-06T10:55:51;6.22;;;4.38;;
76593;SDS011;65482;50.240;14.302;2023-04-06T10:58:18;7.43;;;4.78;;
76593;SDS011;65482;50.240;14.302;2023-04-06T11:00:47;5.85;;;4.53;;
76593;SDS011;65482;50.240;14.302;2023-04-06T11:03:14;6.90;;;5.05;;
76593;SDS011;65482;50.240;14.302;2023-04-06T11:05:47;7.03;;;5.10;;
76593;SDS011;65482;50.240;14.302;2023-04-06T11:08:26;6.35;;;4.70;;
76593;SDS011;65482;50.240;14.302;2023-04-06T11:11:03;7.97;;;4.88;;
76593;SDS011;65482;50.240;14.302;2023-04-06T11:13:37;6.32;;;5.10;;
76593;SDS011;65482;50.240;14.302;2023-04-06T11:16:03;6.78;;;4.70;;
76593;SDS011;65482;50.240;14.302;2023-04-06T11:18:29;6.63;;;4.97;;
76593;SDS011;65482;50.240;14.302;2023-04-06T11:20:55;5.30;;;4.38;;
76593;SDS011;65482;50.240;14.302;2023-04-06T11:23:24;10.40;;;4.75;;
76593;SDS011;65482;50.240;14.302;2023-04-06T11:25:51;7.70;;;4.72;;
76593;SDS011;65482;50.240;14.302;2023-04-06T11:28:18;7.28;;;5.18;;
76593;SDS011;65482;50.240;14.302;2023-04-06T11:30:44;7.20;;;4.95;;
76593;SDS011;65482;50.240;14.302;2023-04-06T11:33:10;6.25;;;5.03;;
76593;SDS011;65482;50.240;14.302;2023-04-06T11:35:36;9.32;;;5.78;;
76593;SDS011;65482;50.240;14.302;2023-04-06T11:38:02;6.88;;;5.50;;
76593;SDS011;65482;50.240;14.302;2023-04-06T11:40:29;11.20;;;5.10;;
76593;SDS011;65482;50.240;14.302;2023-04-06T11:42:55;10.98;;;6.40;;
76593;SDS011;65482;50.240;14.302;2023-04-06T11:45:22;8.07;;;5.68;;
76593;SDS011;65482;50.240;14.302;2023-04-06T11:47:57;12.57;;;7.70;;
76593;SDS011;65482;50.240;14.302;2023-04-06T11:50:31;9.57;;;7.07;;
76593;SDS011;65482;50.240;14.302;2023-04-06T11:52:59;9.57;;;6.20;;
76593;SDS011;65482;50.240;14.302;2023-04-06T11:55:26;7.60;;;5.45;;
76593;SDS011;65482;50.240;14.302;2023-04-06T11:57:52;8.93;;;5.60;;
76593;SDS011;65482;50.240;14.302;2023-04-06T12:00:19;7.32;;;5.07;;
76593;SDS011;65482;50.240;14.302;2023-04-06T12:02:49;6.82;;;4.78;;
76593;SDS011;65482;50.240;14.302;2023-04-06T12:05:15;7.15;;;5.38;;
76593;SDS011;65482;50.240;14.302;2023-04-06T12:07:41;13.65;;;5.60;;
76593;SDS011;65482;50.240;14.302;2023-04-06T12:10:07;7.38;;;5.13;;
76593;SDS011;65482;50.240;14.302;2023-04-06T12:12:32;7.43;;;4.95;;
76593;SDS011;65482;50.240;14.302;2023-04-06T12:14:58;6.85;;;5.75;;
76593;SDS011;65482;50.240;14.302;2023-04-06T12:17:24;6.03;;;4.97;;
76593;SDS011;65482;50.240;14.302;2023-04-06T12:19:51;7.55;;;5.38;;
76593;SDS011;65482;50.240;14.302;2023-04-06T12:22:17;8.05;;;5.47;;
76593;SDS011;65482;50.240;14.302;2023-04-06T12:24:43;7.32;;;5.65;;
76593;SDS011;65482;50.240;14.302;2023-04-06T12:27:09;11.20;;;5.68;;
76593;SDS011;65482;50.240;14.302;2023-04-06T12:29:38;7.55;;;5.68;;
76593;SDS011;65482;50.240;14.302;2023-04-06T12:32:04;6.35;;;5.20;;
76593;SDS011;65482;50.240;14.302;2023-04-06T12:34:30;8.25;;;6.03;;
76593;SDS011;65482;50.240;14.302;2023-04-06T12:36:56;8.85;;;6.30;;
76593;SDS011;65482;50.240;14.302;2023-04-06T12:39:22;9.20;;;6.28;;
76593;SDS011;65482;50.240;14.302;2023-04-06T12:41:48;11.15;;;6.38;;
76593;SDS011;65482;50.240;14.302;2023-04-06T12:44:15;7.82;;;5.97;;
76593;SDS011;65482;50.240;14.302;2023-04-06T12:46:40;6.88;;;5.88;;
76593;SDS011;65482;50.240;14.302;2023-04-06T12:49:06;9.27;;;5.97;;
76593;SDS011;65482;50.240;14.302;2023-04-06T12:51:32;9.07;;;6.20;;
76593;SDS011;65482;50.240;14.302;2023-04-06T12:53:58;9.07;;;5.68;;
76593;SDS011;65482;50.240;14.302;2023-04-06T12:56:23;6.90;;;5.40;;
76593;SDS011;65482;50.240;14.302;2023-04-06T12:58:50;8.93;;;5.80;;
76593;SDS011;65482;50.240;14.302;2023-04-06T13:01:18;7.97;;;5.35;;
76593;SDS011;65482;50.240;14.302;2023-04-06T13:03:45;6.78;;;5.50;;
76593;SDS011;65482;50.240;14.302;2023-04-06T13:06:11;9.10;;;5.70;;
76593;SDS011;65482;50.240;14.302;2023-04-06T13:08:38;9.02;;;6.40;;
76593;SDS011;65482;50.240;14.302;2023-04-06T13:11:05;8.57;;;5.53;;
76593;SDS011;65482;50.240;14.302;2023-04-06T13:13:34;9.00;;;6.13;;
76593;SDS011;65482;50.240;14.302;2023-04-06T13:16:01;9.68;;;5.18;;
76593;SDS011;65482;50.240;14.302;2023-04-06T13:18:32;7.80;;;5.10;;
76593;SDS011;65482;50.240;14.302;2023-04-06T13:20:59;7.03;;;5.50;;
76593;SDS011;65482;50.240;14.302;2023-04-06T13:23:25;7.82;;;5.25;;
76593;SDS011;65482;50.240;14.302;2023-04-06T13:26:01;9.32;;;5.78;;
76593;SDS011;65482;50.240;14.302;2023-04-06T13:28:29;7.90;;;5.63;;
76593;SDS011;65482;50.240;14.302;2023-04-06T13:30:57;8.20;;;5.18;;
76593;SDS011;65482;50.240;14.302;2023-04-06T13:33:24;8.13;;;6.03;;
76593;SDS011;65482;50.240;14.302;2023-04-06T13:35:49;6.93;;;5.50;;
76593;SDS011;65482;50.240;14.302;2023-04-06T13:38:15;7.43;;;5.55;;
76593;SDS011;65482;50.240;14.302;2023-04-06T13:40:41;7.05;;;5.43;;
76593;SDS011;65482;50.240;14.302;2023-04-06T13:43:07;5.75;;;4.70;;
76593;SDS011;65482;50.240;14.302;2023-04-06T13:45:33;7.47;;;5.32;;
76593;SDS011;65482;50.240;14.302;2023-04-06T13:48:09;7.10;;;5.05;;
76593;SDS011;65482;50.240;14.302;2023-04-06T13:51:09;8.60;;;5.28;;
76593;SDS011;65482;50.240;14.302;2023-04-06T13:53:43;7.20;;;5.10;;
76593;SDS011;65482;50.240;14.302;2023-04-06T13:56:51;6.30;;;4.95;;
76593;SDS011;65482;50.240;14.302;2023-04-06T13:59:40;6.57;;;5.10;;
76593;SDS011;65482;50.240;14.302;2023-04-06T14:02:07;7.97;;;5.50;;
76593;SDS011;65482;50.240;14.302;2023-04-06T14:04:35;12.10;;;5.70;;
76593;SDS011;65482;50.240;14.302;2023-04-06T14:07:01;8.38;;;5.88;;
76593;SDS011;65482;50.240;14.302;2023-04-06T14:09:28;8.70;;;5.30;;
76593;SDS011;65482;50.240;14.302;2023-04-06T14:11:55;6.15;;;4.80;;
76593;SDS011;65482;50.240;14.302;2023-04-06T14:14:22;7.30;;;4.90;;
76593;SDS011;65482;50.240;14.302;2023-04-06T14:16:49;6.30;;;4.57;;
76593;SDS011;65482;50.240;14.302;2023-04-06T14:19:15;7.07;;;4.88;;
76593;SDS011;65482;50.240;14.302;2023-04-06T14:21:45;7.47;;;5.28;;
76593;SDS011;65482;50.240;14.302;2023-04-06T14:24:12;7.15;;;5.00;;